CYHZ

Halifax / Stanfield International Airport

Halifax, Nova Scotia, Canada
METAR CYHZ 211306Z 08009KT 3SM -DZ BR OVC003 18/18 A3017 RMK ST8 SLP220 DENSITY ALT 700FT
Observed Flight Rules
Jul-21 @ 13:06 UTC (35 minutes ago) Instrument Flight Rules
Wind Visibility Clouds Conditions
80° at 9 knots 3 miles
  • Overcast at 300' AGL
  • Light Drizzle
  • Mist
Temperatures Readings
Current 18°C / 64°F
Dewpoint 18°C / 64°F
Humidity 100%
Altimeter 30.17" Hg
Pressure 1022 hPa
Elevation 145
METAR CYHZ 211306Z 08009KT 3SM -DZ BR OVC003 18/18 A3017 RMK ST8 SLP220 DENSITY ALT 700FT
Observed Flight Rules
Jul-21 @ 13:06 UTC
(35 minutes ago)
LIFR
Wind Visibility
80° at 9 knots 3 miles
Clouds
  • Overcast at 300' AGL
Conditions
  • Light Drizzle
  • Mist
Temperature Dewpoint
18°C / 64°F 18°C / 64°F
Humidity Altimeter Pressure
100% 30.17" Hg 1022 hPa